sensor_id;sensor_type;location;lat;lon;timestamp;P1;durP1;ratioP1;P2;durP2;ratioP2
67595;SDS011;54410;48.694;8.934;2023-07-02T00:01:13;5.53;;;4.47;;
67595;SDS011;54410;48.694;8.934;2023-07-02T00:03:39;4.32;;;4.00;;
67595;SDS011;54410;48.694;8.934;2023-07-02T00:06:05;5.03;;;4.10;;
67595;SDS011;54410;48.694;8.934;2023-07-02T00:08:30;5.00;;;4.10;;
67595;SDS011;54410;48.694;8.934;2023-07-02T00:10:56;4.53;;;4.13;;
67595;SDS011;54410;48.694;8.934;2023-07-02T00:13:22;4.43;;;3.90;;
67595;SDS011;54410;48.694;8.934;2023-07-02T00:15:48;4.20;;;3.83;;
67595;SDS011;54410;48.694;8.934;2023-07-02T00:18:14;4.82;;;4.22;;
67595;SDS011;54410;48.694;8.934;2023-07-02T00:20:41;4.70;;;4.20;;
67595;SDS011;54410;48.694;8.934;2023-07-02T00:23:07;4.35;;;4.00;;
67595;SDS011;54410;48.694;8.934;2023-07-02T00:25:36;4.40;;;4.05;;
67595;SDS011;54410;48.694;8.934;2023-07-02T00:28:02;4.43;;;4.03;;
67595;SDS011;54410;48.694;8.934;2023-07-02T00:30:28;4.03;;;3.72;;
67595;SDS011;54410;48.694;8.934;2023-07-02T00:32:54;3.85;;;3.55;;
67595;SDS011;54410;48.694;8.934;2023-07-02T00:35:20;4.38;;;3.97;;
67595;SDS011;54410;48.694;8.934;2023-07-02T00:37:47;3.97;;;3.70;;
67595;SDS011;54410;48.694;8.934;2023-07-02T00:40:13;3.92;;;3.63;;
67595;SDS011;54410;48.694;8.934;2023-07-02T00:42:39;4.30;;;4.00;;
67595;SDS011;54410;48.694;8.934;2023-07-02T00:45:04;4.18;;;3.80;;
67595;SDS011;54410;48.694;8.934;2023-07-02T00:47:32;5.25;;;4.07;;
67595;SDS011;54410;48.694;8.934;2023-07-02T00:49:59;7.70;;;4.30;;
67595;SDS011;54410;48.694;8.934;2023-07-02T00:52:25;4.03;;;3.72;;
67595;SDS011;54410;48.694;8.934;2023-07-02T00:54:51;4.30;;;3.95;;
67595;SDS011;54410;48.694;8.934;2023-07-02T00:57:17;4.60;;;4.20;;
67595;SDS011;54410;48.694;8.934;2023-07-02T00:59:43;4.38;;;3.97;;
67595;SDS011;54410;48.694;8.934;2023-07-02T01:02:09;6.03;;;4.38;;
67595;SDS011;54410;48.694;8.934;2023-07-02T01:04:35;4.53;;;3.95;;
67595;SDS011;54410;48.694;8.934;2023-07-02T01:07:02;4.43;;;4.03;;
67595;SDS011;54410;48.694;8.934;2023-07-02T01:09:33;4.50;;;4.10;;
67595;SDS011;54410;48.694;8.934;2023-07-02T01:12:00;4.78;;;4.38;;
67595;SDS011;54410;48.694;8.934;2023-07-02T01:14:30;4.72;;;4.40;;
67595;SDS011;54410;48.694;8.934;2023-07-02T01:16:59;4.70;;;4.20;;
67595;SDS011;54410;48.694;8.934;2023-07-02T01:22:21;4.32;;;4.03;;
67595;SDS011;54410;48.694;8.934;2023-07-02T01:24:50;4.57;;;4.28;;
67595;SDS011;54410;48.694;8.934;2023-07-02T01:27:16;4.90;;;4.40;;
67595;SDS011;54410;48.694;8.934;2023-07-02T01:29:42;5.15;;;4.47;;
67595;SDS011;54410;48.694;8.934;2023-07-02T01:32:10;5.97;;;4.13;;
67595;SDS011;54410;48.694;8.934;2023-07-02T01:34:36;4.68;;;4.32;;
67595;SDS011;54410;48.694;8.934;2023-07-02T01:37:02;6.65;;;4.60;;
67595;SDS011;54410;48.694;8.934;2023-07-02T01:39:28;6.25;;;4.57;;
67595;SDS011;54410;48.694;8.934;2023-07-02T01:41:54;4.75;;;4.35;;
67595;SDS011;54410;48.694;8.934;2023-07-02T01:44:21;5.22;;;4.75;;
67595;SDS011;54410;48.694;8.934;2023-07-02T01:46:47;5.13;;;4.60;;
67595;SDS011;54410;48.694;8.934;2023-07-02T01:49:16;5.03;;;4.60;;
67595;SDS011;54410;48.694;8.934;2023-07-02T01:51:49;6.22;;;4.88;;
67595;SDS011;54410;48.694;8.934;2023-07-02T01:54:18;5.00;;;4.60;;
67595;SDS011;54410;48.694;8.934;2023-07-02T01:56:43;4.47;;;4.18;;
67595;SDS011;54410;48.694;8.934;2023-07-02T01:59:09;5.50;;;4.97;;
67595;SDS011;54410;48.694;8.934;2023-07-02T02:01:36;7.28;;;4.60;;
67595;SDS011;54410;48.694;8.934;2023-07-02T02:04:05;5.38;;;4.60;;
67595;SDS011;54410;48.694;8.934;2023-07-02T02:06:31;5.93;;;5.30;;
67595;SDS011;54410;48.694;8.934;2023-07-02T02:08:57;5.53;;;5.03;;
67595;SDS011;54410;48.694;8.934;2023-07-02T02:11:23;8.35;;;5.30;;
67595;SDS011;54410;48.694;8.934;2023-07-02T02:13:49;4.38;;;4.07;;
67595;SDS011;54410;48.694;8.934;2023-07-02T02:16:15;4.03;;;3.72;;
67595;SDS011;54410;48.694;8.934;2023-07-02T02:18:41;4.82;;;4.43;;
67595;SDS011;54410;48.694;8.934;2023-07-02T02:21:07;4.50;;;4.10;;
67595;SDS011;54410;48.694;8.934;2023-07-02T02:23:33;4.50;;;4.05;;
67595;SDS011;54410;48.694;8.934;2023-07-02T02:25:59;4.78;;;4.38;;
67595;SDS011;54410;48.694;8.934;2023-07-02T02:28:25;4.72;;;4.15;;
67595;SDS011;54410;48.694;8.934;2023-07-02T02:30:50;4.32;;;3.90;;
67595;SDS011;54410;48.694;8.934;2023-07-02T02:33:16;4.55;;;3.85;;
67595;SDS011;54410;48.694;8.934;2023-07-02T02:35:42;4.47;;;3.88;;
67595;SDS011;54410;48.694;8.934;2023-07-02T02:38:08;5.15;;;4.68;;
67595;SDS011;54410;48.694;8.934;2023-07-02T02:40:33;4.43;;;4.07;;
67595;SDS011;54410;48.694;8.934;2023-07-02T02:42:59;4.80;;;4.38;;
67595;SDS011;54410;48.694;8.934;2023-07-02T02:45:25;4.00;;;3.70;;
67595;SDS011;54410;48.694;8.934;2023-07-02T02:47:51;4.40;;;4.10;;
67595;SDS011;54410;48.694;8.934;2023-07-02T02:50:17;4.68;;;4.13;;
67595;SDS011;54410;48.694;8.934;2023-07-02T02:52:43;6.63;;;4.10;;
67595;SDS011;54410;48.694;8.934;2023-07-02T02:55:11;4.18;;;3.78;;
67595;SDS011;54410;48.694;8.934;2023-07-02T02:57:37;6.20;;;3.53;;
67595;SDS011;54410;48.694;8.934;2023-07-02T03:00:03;4.57;;;4.15;;
67595;SDS011;54410;48.694;8.934;2023-07-02T03:02:30;4.65;;;4.20;;
67595;SDS011;54410;48.694;8.934;2023-07-02T03:04:55;5.60;;;4.30;;
67595;SDS011;54410;48.694;8.934;2023-07-02T03:07:22;4.88;;;4.38;;
67595;SDS011;54410;48.694;8.934;2023-07-02T03:09:48;4.90;;;4.40;;
67595;SDS011;54410;48.694;8.934;2023-07-02T03:12:14;4.72;;;4.32;;
67595;SDS011;54410;48.694;8.934;2023-07-02T03:14:40;5.78;;;4.47;;
67595;SDS011;54410;48.694;8.934;2023-07-02T03:17:06;6.78;;;4.22;;
67595;SDS011;54410;48.694;8.934;2023-07-02T03:19:31;5.80;;;4.25;;
67595;SDS011;54410;48.694;8.934;2023-07-02T03:21:57;4.55;;;4.15;;
67595;SDS011;54410;48.694;8.934;2023-07-02T03:24:23;5.13;;;4.32;;
67595;SDS011;54410;48.694;8.934;2023-07-02T03:26:49;6.78;;;3.97;;
67595;SDS011;54410;48.694;8.934;2023-07-02T03:29:15;5.40;;;4.90;;
67595;SDS011;54410;48.694;8.934;2023-07-02T03:31:41;4.43;;;4.03;;
67595;SDS011;54410;48.694;8.934;2023-07-02T03:34:08;5.25;;;4.82;;
67595;SDS011;54410;48.694;8.934;2023-07-02T03:36:34;4.68;;;4.28;;
67595;SDS011;54410;48.694;8.934;2023-07-02T03:39:00;5.07;;;4.60;;
67595;SDS011;54410;48.694;8.934;2023-07-02T03:41:27;4.70;;;4.30;;
67595;SDS011;54410;48.694;8.934;2023-07-02T03:43:53;6.75;;;4.63;;
67595;SDS011;54410;48.694;8.934;2023-07-02T03:46:19;4.93;;;4.43;;
67595;SDS011;54410;48.694;8.934;2023-07-02T03:48:45;6.72;;;4.50;;
67595;SDS011;54410;48.694;8.934;2023-07-02T03:51:11;6.45;;;4.47;;
67595;SDS011;54410;48.694;8.934;2023-07-02T03:53:39;4.68;;;4.28;;
67595;SDS011;54410;48.694;8.934;2023-07-02T03:56:05;7.20;;;4.57;;
67595;SDS011;54410;48.694;8.934;2023-07-02T03:58:31;4.45;;;4.10;;
67595;SDS011;54410;48.694;8.934;2023-07-02T04:00:58;5.88;;;5.28;;
67595;SDS011;54410;48.694;8.934;2023-07-02T04:03:23;4.50;;;4.10;;
67595;SDS011;54410;48.694;8.934;2023-07-02T04:05:49;4.90;;;4.45;;
67595;SDS011;54410;48.694;8.934;2023-07-02T04:08:15;5.18;;;4.68;;
67595;SDS011;54410;48.694;8.934;2023-07-02T04:10:41;4.95;;;4.53;;
67595;SDS011;54410;48.694;8.934;2023-07-02T04:13:07;7.35;;;4.72;;
67595;SDS011;54410;48.694;8.934;2023-07-02T04:15:33;5.03;;;4.45;;
67595;SDS011;54410;48.694;8.934;2023-07-02T04:18:00;4.47;;;4.05;;
67595;SDS011;54410;48.694;8.934;2023-07-02T04:20:26;4.40;;;4.00;;
67595;SDS011;54410;48.694;8.934;2023-07-02T04:22:53;4.80;;;4.30;;
67595;SDS011;54410;48.694;8.934;2023-07-02T04:25:19;4.10;;;3.80;;
67595;SDS011;54410;48.694;8.934;2023-07-02T04:27:45;4.30;;;3.90;;
67595;SDS011;54410;48.694;8.934;2023-07-02T04:30:13;6.47;;;4.75;;
67595;SDS011;54410;48.694;8.934;2023-07-02T04:32:39;5.00;;;4.50;;
67595;SDS011;54410;48.694;8.934;2023-07-02T04:35:06;4.78;;;4.28;;
67595;SDS011;54410;48.694;8.934;2023-07-02T04:37:32;5.82;;;4.88;;
67595;SDS011;54410;48.694;8.934;2023-07-02T04:39:58;5.18;;;4.20;;
67595;SDS011;54410;48.694;8.934;2023-07-02T04:42:25;5.50;;;4.07;;
67595;SDS011;54410;48.694;8.934;2023-07-02T04:44:52;4.88;;;4.47;;
67595;SDS011;54410;48.694;8.934;2023-07-02T04:47:19;4.38;;;3.97;;
67595;SDS011;54410;48.694;8.934;2023-07-02T04:49:45;5.10;;;4.60;;
67595;SDS011;54410;48.694;8.934;2023-07-02T04:52:11;5.53;;;5.15;;
67595;SDS011;54410;48.694;8.934;2023-07-02T04:54:37;6.95;;;3.60;;
67595;SDS011;54410;48.694;8.934;2023-07-02T04:57:03;4.80;;;4.10;;
67595;SDS011;54410;48.694;8.934;2023-07-02T04:59:29;4.88;;;4.32;;
67595;SDS011;54410;48.694;8.934;2023-07-02T05:01:55;5.68;;;5.07;;
67595;SDS011;54410;48.694;8.934;2023-07-02T05:04:21;7.82;;;4.57;;
67595;SDS011;54410;48.694;8.934;2023-07-02T05:06:47;7.90;;;4.30;;
67595;SDS011;54410;48.694;8.934;2023-07-02T05:09:13;5.15;;;4.20;;
67595;SDS011;54410;48.694;8.934;2023-07-02T05:11:39;4.55;;;4.07;;
67595;SDS011;54410;48.694;8.934;2023-07-02T05:14:05;6.03;;;4.25;;
67595;SDS011;54410;48.694;8.934;2023-07-02T05:16:31;5.10;;;4.05;;
67595;SDS011;54410;48.694;8.934;2023-07-02T05:18:56;5.90;;;4.43;;
67595;SDS011;54410;48.694;8.934;2023-07-02T05:21:22;5.75;;;5.00;;
67595;SDS011;54410;48.694;8.934;2023-07-02T05:23:48;6.40;;;4.57;;
67595;SDS011;54410;48.694;8.934;2023-07-02T05:26:14;4.70;;;3.55;;
67595;SDS011;54410;48.694;8.934;2023-07-02T05:28:40;5.15;;;4.25;;
67595;SDS011;54410;48.694;8.934;2023-07-02T05:31:06;6.03;;;4.97;;
67595;SDS011;54410;48.694;8.934;2023-07-02T05:33:31;8.88;;;8.10;;
67595;SDS011;54410;48.694;8.934;2023-07-02T05:35:58;10.43;;;9.68;;
67595;SDS011;54410;48.694;8.934;2023-07-02T05:38:23;5.93;;;3.90;;
67595;SDS011;54410;48.694;8.934;2023-07-02T05:40:49;5.45;;;4.10;;
67595;SDS011;54410;48.694;8.934;2023-07-02T05:43:15;4.40;;;3.40;;
67595;SDS011;54410;48.694;8.934;2023-07-02T05:45:41;5.18;;;3.67;;
67595;SDS011;54410;48.694;8.934;2023-07-02T05:48:06;5.55;;;3.45;;
67595;SDS011;54410;48.694;8.934;2023-07-02T05:50:32;5.15;;;3.35;;
67595;SDS011;54410;48.694;8.934;2023-07-02T05:52:58;6.05;;;3.70;;
67595;SDS011;54410;48.694;8.934;2023-07-02T05:55:24;5.78;;;4.43;;
67595;SDS011;54410;48.694;8.934;2023-07-02T05:57:49;5.97;;;4.65;;
67595;SDS011;54410;48.694;8.934;2023-07-02T06:00:15;6.85;;;5.28;;
67595;SDS011;54410;48.694;8.934;2023-07-02T06:02:41;7.55;;;5.03;;
67595;SDS011;54410;48.694;8.934;2023-07-02T06:05:06;7.07;;;4.80;;
67595;SDS011;54410;48.694;8.934;2023-07-02T06:07:32;7.93;;;5.25;;
67595;SDS011;54410;48.694;8.934;2023-07-02T06:09:58;11.25;;;4.97;;
67595;SDS011;54410;48.694;8.934;2023-07-02T06:12:24;6.18;;;4.95;;
67595;SDS011;54410;48.694;8.934;2023-07-02T06:14:50;11.00;;;5.65;;
67595;SDS011;54410;48.694;8.934;2023-07-02T06:17:15;8.20;;;5.65;;
67595;SDS011;54410;48.694;8.934;2023-07-02T06:19:41;7.40;;;5.22;;
67595;SDS011;54410;48.694;8.934;2023-07-02T06:22:06;8.93;;;6.55;;
67595;SDS011;54410;48.694;8.934;2023-07-02T06:24:32;9.30;;;6.72;;
67595;SDS011;54410;48.694;8.934;2023-07-02T06:26:58;14.13;;;7.20;;
67595;SDS011;54410;48.694;8.934;2023-07-02T06:29:24;12.60;;;8.02;;
67595;SDS011;54410;48.694;8.934;2023-07-02T06:31:51;8.80;;;7.57;;
67595;SDS011;54410;48.694;8.934;2023-07-02T06:34:16;12.48;;;7.95;;
67595;SDS011;54410;48.694;8.934;2023-07-02T06:36:42;11.15;;;7.65;;
67595;SDS011;54410;48.694;8.934;2023-07-02T06:39:08;11.00;;;7.95;;
67595;SDS011;54410;48.694;8.934;2023-07-02T06:41:34;11.23;;;7.40;;
67595;SDS011;54410;48.694;8.934;2023-07-02T06:44:01;12.68;;;7.63;;
67595;SDS011;54410;48.694;8.934;2023-07-02T06:46:26;15.25;;;8.70;;
67595;SDS011;54410;48.694;8.934;2023-07-02T06:48:52;11.85;;;9.35;;
67595;SDS011;54410;48.694;8.934;2023-07-02T06:51:18;13.88;;;9.68;;
67595;SDS011;54410;48.694;8.934;2023-07-02T06:53:45;12.60;;;9.07;;
67595;SDS011;54410;48.694;8.934;2023-07-02T06:56:11;10.45;;;7.97;;
67595;SDS011;54410;48.694;8.934;2023-07-02T06:58:39;13.70;;;8.48;;
67595;SDS011;54410;48.694;8.934;2023-07-02T07:01:06;14.55;;;8.25;;
67595;SDS011;54410;48.694;8.934;2023-07-02T07:03:33;15.82;;;9.30;;
67595;SDS011;54410;48.694;8.934;2023-07-02T07:05:59;14.57;;;8.60;;
67595;SDS011;54410;48.694;8.934;2023-07-02T07:08:25;14.40;;;8.68;;
67595;SDS011;54410;48.694;8.934;2023-07-02T07:10:51;11.77;;;8.77;;
67595;SDS011;54410;48.694;8.934;2023-07-02T07:13:17;13.82;;;8.68;;
67595;SDS011;54410;48.694;8.934;2023-07-02T07:15:42;17.50;;;10.10;;
67595;SDS011;54410;48.694;8.934;2023-07-02T07:18:09;15.82;;;9.70;;
67595;SDS011;54410;48.694;8.934;2023-07-02T07:20:35;16.13;;;9.25;;
67595;SDS011;54410;48.694;8.934;2023-07-02T07:23:05;13.75;;;9.07;;
67595;SDS011;54410;48.694;8.934;2023-07-02T07:25:31;15.00;;;9.50;;
67595;SDS011;54410;48.694;8.934;2023-07-02T07:27:57;13.32;;;8.70;;
67595;SDS011;54410;48.694;8.934;2023-07-02T07:30:23;20.52;;;9.95;;
67595;SDS011;54410;48.694;8.934;2023-07-02T07:32:52;14.07;;;9.07;;
67595;SDS011;54410;48.694;8.934;2023-07-02T07:35:19;15.63;;;9.32;;
67595;SDS011;54410;48.694;8.934;2023-07-02T07:37:46;16.60;;;10.10;;
67595;SDS011;54410;48.694;8.934;2023-07-02T07:40:13;15.75;;;10.70;;
67595;SDS011;54410;48.694;8.934;2023-07-02T07:42:39;16.50;;;9.60;;
67595;SDS011;54410;48.694;8.934;2023-07-02T07:45:06;16.17;;;9.93;;
67595;SDS011;54410;48.694;8.934;2023-07-02T07:47:32;12.98;;;9.45;;
67595;SDS011;54410;48.694;8.934;2023-07-02T07:49:58;17.98;;;10.55;;
67595;SDS011;54410;48.694;8.934;2023-07-02T07:52:24;18.15;;;10.93;;
67595;SDS011;54410;48.694;8.934;2023-07-02T07:54:50;17.52;;;13.32;;
67595;SDS011;54410;48.694;8.934;2023-07-02T07:57:15;17.83;;;15.68;;
67595;SDS011;54410;48.694;8.934;2023-07-02T07:59:41;17.58;;;15.88;;
67595;SDS011;54410;48.694;8.934;2023-07-02T08:02:07;20.02;;;15.98;;
67595;SDS011;54410;48.694;8.934;2023-07-02T08:04:34;15.90;;;13.27;;
67595;SDS011;54410;48.694;8.934;2023-07-02T08:07:00;18.90;;;13.27;;
67595;SDS011;54410;48.694;8.934;2023-07-02T08:09:25;18.40;;;15.93;;
67595;SDS011;54410;48.694;8.934;2023-07-02T08:11:51;19.70;;;18.00;;
67595;SDS011;54410;48.694;8.934;2023-07-02T08:14:17;23.25;;;20.92;;
67595;SDS011;54410;48.694;8.934;2023-07-02T08:16:46;17.77;;;12.82;;
67595;SDS011;54410;48.694;8.934;2023-07-02T08:19:12;16.92;;;12.20;;
67595;SDS011;54410;48.694;8.934;2023-07-02T08:21:38;18.75;;;13.80;;
67595;SDS011;54410;48.694;8.934;2023-07-02T08:24:04;19.80;;;15.95;;
67595;SDS011;54410;48.694;8.934;2023-07-02T08:26:31;17.58;;;14.88;;
67595;SDS011;54410;48.694;8.934;2023-07-02T08:28:57;19.50;;;16.65;;
67595;SDS011;54410;48.694;8.934;2023-07-02T08:31:22;20.23;;;18.35;;
67595;SDS011;54410;48.694;8.934;2023-07-02T08:33:48;20.73;;;18.63;;
67595;SDS011;54410;48.694;8.934;2023-07-02T08:36:14;23.33;;;21.17;;
67595;SDS011;54410;48.694;8.934;2023-07-02T08:38:40;26.50;;;24.10;;
67595;SDS011;54410;48.694;8.934;2023-07-02T08:41:08;14.32;;;11.60;;
67595;SDS011;54410;48.694;8.934;2023-07-02T08:43:34;14.25;;;9.23;;
67595;SDS011;54410;48.694;8.934;2023-07-02T08:46:01;13.90;;;9.57;;
67595;SDS011;54410;48.694;8.934;2023-07-02T08:48:26;13.65;;;8.60;;
67595;SDS011;54410;48.694;8.934;2023-07-02T08:50:54;14.57;;;9.27;;
67595;SDS011;54410;48.694;8.934;2023-07-02T08:53:20;15.05;;;10.88;;
67595;SDS011;54410;48.694;8.934;2023-07-02T08:55:50;16.83;;;10.25;;
67595;SDS011;54410;48.694;8.934;2023-07-02T08:58:16;15.18;;;11.45;;
67595;SDS011;54410;48.694;8.934;2023-07-02T09:03:27;11.30;;;7.93;;
67595;SDS011;54410;48.694;8.934;2023-07-02T09:05:53;15.82;;;8.05;;
67595;SDS011;54410;48.694;8.934;2023-07-02T09:08:25;13.02;;;7.82;;
67595;SDS011;54410;48.694;8.934;2023-07-02T09:10:52;10.02;;;6.53;;
67595;SDS011;54410;48.694;8.934;2023-07-02T09:13:18;9.20;;;7.40;;
67595;SDS011;54410;48.694;8.934;2023-07-02T09:15:44;9.23;;;6.70;;
67595;SDS011;54410;48.694;8.934;2023-07-02T09:18:16;9.98;;;7.35;;
67595;SDS011;54410;48.694;8.934;2023-07-02T09:20:46;12.65;;;7.15;;
67595;SDS011;54410;48.694;8.934;2023-07-02T09:23:12;10.82;;;7.20;;
67595;SDS011;54410;48.694;8.934;2023-07-02T09:25:38;22.98;;;9.50;;
67595;SDS011;54410;48.694;8.934;2023-07-02T09:28:21;11.55;;;8.05;;
67595;SDS011;54410;48.694;8.934;2023-07-02T09:30:51;12.02;;;8.38;;
67595;SDS011;54410;48.694;8.934;2023-07-02T09:33:21;11.43;;;8.25;;
67595;SDS011;54410;48.694;8.934;2023-07-02T09:35:50;13.45;;;9.13;;
67595;SDS011;54410;48.694;8.934;2023-07-02T09:38:17;12.50;;;8.75;;
67595;SDS011;54410;48.694;8.934;2023-07-02T09:40:47;14.07;;;9.13;;
67595;SDS011;54410;48.694;8.934;2023-07-02T09:43:14;14.50;;;8.77;;
67595;SDS011;54410;48.694;8.934;2023-07-02T09:45:42;12.65;;;9.32;;
67595;SDS011;54410;48.694;8.934;2023-07-02T09:48:09;17.05;;;9.10;;
67595;SDS011;54410;48.694;8.934;2023-07-02T09:50:45;14.65;;;9.15;;
67595;SDS011;54410;48.694;8.934;2023-07-02T09:53:12;15.50;;;10.90;;
67595;SDS011;54410;48.694;8.934;2023-07-02T09:55:44;17.50;;;9.70;;
67595;SDS011;54410;48.694;8.934;2023-07-02T09:58:09;16.05;;;10.65;;
67595;SDS011;54410;48.694;8.934;2023-07-02T10:00:37;14.57;;;8.57;;
67595;SDS011;54410;48.694;8.934;2023-07-02T10:03:03;12.70;;;9.48;;
67595;SDS011;54410;48.694;8.934;2023-07-02T10:05:29;14.40;;;8.95;;
67595;SDS011;54410;48.694;8.934;2023-07-02T10:07:56;12.13;;;8.75;;
67595;SDS011;54410;48.694;8.934;2023-07-02T10:10:30;14.30;;;9.18;;
67595;SDS011;54410;48.694;8.934;2023-07-02T10:12:56;14.60;;;8.93;;
67595;SDS011;54410;48.694;8.934;2023-07-02T10:15:29;15.13;;;9.07;;
67595;SDS011;54410;48.694;8.934;2023-07-02T10:20:31;14.55;;;8.82;;
67595;SDS011;54410;48.694;8.934;2023-07-02T10:23:01;13.45;;;9.57;;
67595;SDS011;54410;48.694;8.934;2023-07-02T10:25:27;14.25;;;9.57;;
67595;SDS011;54410;48.694;8.934;2023-07-02T10:27:54;17.33;;;9.98;;
67595;SDS011;54410;48.694;8.934;2023-07-02T10:30:30;17.80;;;9.40;;
67595;SDS011;54410;48.694;8.934;2023-07-02T10:33:15;14.75;;;9.60;;
67595;SDS011;54410;48.694;8.934;2023-07-02T10:35:43;16.30;;;9.90;;
67595;SDS011;54410;48.694;8.934;2023-07-02T10:38:17;14.82;;;9.60;;
67595;SDS011;54410;48.694;8.934;2023-07-02T10:40:53;17.20;;;9.68;;
67595;SDS011;54410;48.694;8.934;2023-07-02T10:43:29;14.23;;;9.25;;
67595;SDS011;54410;48.694;8.934;2023-07-02T10:45:56;14.40;;;9.70;;
67595;SDS011;54410;48.694;8.934;2023-07-02T10:48:22;12.80;;;9.60;;
67595;SDS011;54410;48.694;8.934;2023-07-02T10:50:48;14.07;;;9.27;;
67595;SDS011;54410;48.694;8.934;2023-07-02T10:53:14;14.60;;;9.00;;
67595;SDS011;54410;48.694;8.934;2023-07-02T10:55:41;13.50;;;9.07;;
67595;SDS011;54410;48.694;8.934;2023-07-02T10:58:08;12.40;;;8.55;;
67595;SDS011;54410;48.694;8.934;2023-07-02T11:00:47;15.63;;;10.18;;
67595;SDS011;54410;48.694;8.934;2023-07-02T11:03:22;14.52;;;9.63;;
67595;SDS011;54410;48.694;8.934;2023-07-02T11:05:49;14.40;;;9.57;;
67595;SDS011;54410;48.694;8.934;2023-07-02T11:08:15;15.77;;;9.85;;
67595;SDS011;54410;48.694;8.934;2023-07-02T11:10:42;16.80;;;9.98;;
67595;SDS011;54410;48.694;8.934;2023-07-02T11:13:17;14.95;;;9.40;;
67595;SDS011;54410;48.694;8.934;2023-07-02T11:15:44;15.63;;;10.35;;
67595;SDS011;54410;48.694;8.934;2023-07-02T11:18:16;13.30;;;9.60;;
67595;SDS011;54410;48.694;8.934;2023-07-02T11:20:43;15.98;;;11.88;;
67595;SDS011;54410;48.694;8.934;2023-07-02T11:23:16;15.98;;;11.07;;
67595;SDS011;54410;48.694;8.934;2023-07-02T11:25:57;15.15;;;9.85;;
67595;SDS011;54410;48.694;8.934;2023-07-02T11:28:26;12.02;;;9.48;;
67595;SDS011;54410;48.694;8.934;2023-07-02T11:30:53;13.88;;;9.68;;
67595;SDS011;54410;48.694;8.934;2023-07-02T11:33:35;13.18;;;9.68;;
67595;SDS011;54410;48.694;8.934;2023-07-02T11:36:01;14.13;;;9.10;;
67595;SDS011;54410;48.694;8.934;2023-07-02T11:38:28;14.07;;;9.23;;
67595;SDS011;54410;48.694;8.934;2023-07-02T11:40:53;16.25;;;9.45;;
67595;SDS011;54410;48.694;8.934;2023-07-02T11:43:19;15.55;;;10.02;;
67595;SDS011;54410;48.694;8.934;2023-07-02T11:45:45;14.23;;;9.45;;
67595;SDS011;54410;48.694;8.934;2023-07-02T11:48:11;18.08;;;10.18;;
67595;SDS011;54410;48.694;8.934;2023-07-02T11:50:37;15.38;;;10.20;;
67595;SDS011;54410;48.694;8.934;2023-07-02T11:53:03;15.43;;;9.40;;
67595;SDS011;54410;48.694;8.934;2023-07-02T11:55:29;13.90;;;9.38;;
67595;SDS011;54410;48.694;8.934;2023-07-02T11:57:55;16.73;;;9.52;;
67595;SDS011;54410;48.694;8.934;2023-07-02T12:00:21;12.80;;;9.52;;
67595;SDS011;54410;48.694;8.934;2023-07-02T12:02:47;15.18;;;9.88;;
67595;SDS011;54410;48.694;8.934;2023-07-02T12:05:13;14.80;;;9.30;;
67595;SDS011;54410;48.694;8.934;2023-07-02T12:07:39;16.08;;;9.55;;
67595;SDS011;54410;48.694;8.934;2023-07-02T12:10:06;14.70;;;9.40;;
67595;SDS011;54410;48.694;8.934;2023-07-02T12:12:33;14.10;;;9.73;;
67595;SDS011;54410;48.694;8.934;2023-07-02T12:14:59;14.30;;;9.13;;
67595;SDS011;54410;48.694;8.934;2023-07-02T12:17:24;16.60;;;10.18;;
67595;SDS011;54410;48.694;8.934;2023-07-02T12:19:50;18.17;;;10.45;;
67595;SDS011;54410;48.694;8.934;2023-07-02T12:22:16;12.02;;;9.35;;
67595;SDS011;54410;48.694;8.934;2023-07-02T12:24:43;15.10;;;10.23;;
67595;SDS011;54410;48.694;8.934;2023-07-02T12:27:09;12.43;;;9.90;;
67595;SDS011;54410;48.694;8.934;2023-07-02T12:29:38;14.02;;;9.50;;
67595;SDS011;54410;48.694;8.934;2023-07-02T12:32:03;14.65;;;9.35;;
67595;SDS011;54410;48.694;8.934;2023-07-02T12:34:31;13.70;;;9.63;;
67595;SDS011;54410;48.694;8.934;2023-07-02T12:36:57;13.93;;;8.55;;
67595;SDS011;54410;48.694;8.934;2023-07-02T12:39:22;12.75;;;8.60;;
67595;SDS011;54410;48.694;8.934;2023-07-02T12:41:49;13.77;;;8.40;;
67595;SDS011;54410;48.694;8.934;2023-07-02T12:44:14;13.50;;;8.90;;
67595;SDS011;54410;48.694;8.934;2023-07-02T12:46:40;12.48;;;8.98;;
67595;SDS011;54410;48.694;8.934;2023-07-02T12:49:06;10.55;;;8.18;;
67595;SDS011;54410;48.694;8.934;2023-07-02T12:51:32;13.77;;;9.02;;
67595;SDS011;54410;48.694;8.934;2023-07-02T12:53:58;14.13;;;9.15;;
67595;SDS011;54410;48.694;8.934;2023-07-02T12:56:24;11.77;;;8.48;;
67595;SDS011;54410;48.694;8.934;2023-07-02T12:58:50;12.82;;;8.85;;
67595;SDS011;54410;48.694;8.934;2023-07-02T13:01:16;13.52;;;8.93;;
67595;SDS011;54410;48.694;8.934;2023-07-02T13:03:46;14.00;;;8.90;;
67595;SDS011;54410;48.694;8.934;2023-07-02T13:06:12;12.60;;;8.50;;
67595;SDS011;54410;48.694;8.934;2023-07-02T13:08:38;13.00;;;9.10;;
67595;SDS011;54410;48.694;8.934;2023-07-02T13:11:04;13.32;;;8.48;;
67595;SDS011;54410;48.694;8.934;2023-07-02T13:13:30;11.65;;;8.40;;
67595;SDS011;54410;48.694;8.934;2023-07-02T13:15:56;12.25;;;8.52;;
67595;SDS011;54410;48.694;8.934;2023-07-02T13:18:22;12.52;;;9.13;;
67595;SDS011;54410;48.694;8.934;2023-07-02T13:20:48;12.35;;;8.85;;
67595;SDS011;54410;48.694;8.934;2023-07-02T13:23:14;14.55;;;9.13;;
67595;SDS011;54410;48.694;8.934;2023-07-02T13:25:39;14.35;;;9.00;;
67595;SDS011;54410;48.694;8.934;2023-07-02T13:28:05;12.73;;;8.60;;
67595;SDS011;54410;48.694;8.934;2023-07-02T13:30:31;13.25;;;8.43;;
67595;SDS011;54410;48.694;8.934;2023-07-02T13:32:57;11.93;;;8.90;;
67595;SDS011;54410;48.694;8.934;2023-07-02T13:35:23;13.73;;;9.77;;
67595;SDS011;54410;48.694;8.934;2023-07-02T13:37:49;14.98;;;9.98;;
67595;SDS011;54410;48.694;8.934;2023-07-02T13:40:15;11.90;;;8.75;;
67595;SDS011;54410;48.694;8.934;2023-07-02T13:42:42;14.07;;;9.10;;
67595;SDS011;54410;48.694;8.934;2023-07-02T13:45:08;12.25;;;8.32;;
67595;SDS011;54410;48.694;8.934;2023-07-02T13:47:34;11.35;;;8.45;;
67595;SDS011;54410;48.694;8.934;2023-07-02T13:50:01;11.95;;;8.52;;
67595;SDS011;54410;48.694;8.934;2023-07-02T13:52:27;13.40;;;9.52;;
67595;SDS011;54410;48.694;8.934;2023-07-02T13:54:53;13.30;;;8.95;;
67595;SDS011;54410;48.694;8.934;2023-07-02T13:57:18;12.27;;;9.13;;
67595;SDS011;54410;48.694;8.934;2023-07-02T13:59:44;12.90;;;9.02;;
67595;SDS011;54410;48.694;8.934;2023-07-02T14:02:09;12.25;;;8.52;;
67595;SDS011;54410;48.694;8.934;2023-07-02T14:04:35;18.05;;;9.38;;
67595;SDS011;54410;48.694;8.934;2023-07-02T14:07:02;14.93;;;9.52;;
67595;SDS011;54410;48.694;8.934;2023-07-02T14:09:28;13.85;;;9.07;;
67595;SDS011;54410;48.694;8.934;2023-07-02T14:11:54;13.60;;;8.75;;
67595;SDS011;54410;48.694;8.934;2023-07-02T14:14:20;13.45;;;9.20;;
67595;SDS011;54410;48.694;8.934;2023-07-02T14:16:46;15.93;;;9.38;;
67595;SDS011;54410;48.694;8.934;2023-07-02T14:19:12;14.85;;;9.80;;
67595;SDS011;54410;48.694;8.934;2023-07-02T14:21:38;14.95;;;9.75;;
67595;SDS011;54410;48.694;8.934;2023-07-02T14:24:04;12.88;;;9.75;;
67595;SDS011;54410;48.694;8.934;2023-07-02T14:26:30;14.73;;;9.65;;
67595;SDS011;54410;48.694;8.934;2023-07-02T14:28:56;13.05;;;9.55;;
67595;SDS011;54410;48.694;8.934;2023-07-02T14:31:23;15.00;;;10.23;;
67595;SDS011;54410;48.694;8.934;2023-07-02T14:33:49;13.77;;;9.50;;
67595;SDS011;54410;48.694;8.934;2023-07-02T14:36:15;15.02;;;9.55;;
67595;SDS011;54410;48.694;8.934;2023-07-02T14:38:41;13.82;;;9.82;;
67595;SDS011;54410;48.694;8.934;2023-07-02T14:41:07;13.63;;;9.70;;
67595;SDS011;54410;48.694;8.934;2023-07-02T14:43:32;13.13;;;9.10;;